createdAt,value
2022-07-25T00:00:12.060Z,62.37182617
2022-07-25T00:01:12.865Z,62.5
2022-07-25T00:02:14.522Z,62.60375977
2022-07-25T00:03:18.527Z,62.60375977
2022-07-25T00:04:16.124Z,62.60375977
2022-07-25T00:05:16.778Z,62.70141602
2022-07-25T00:06:17.759Z,63.09814453
2022-07-25T00:07:18.948Z,63.29956055
2022-07-25T00:08:20.415Z,63.59863281
2022-07-25T00:09:21.269Z,63.59863281
2022-07-25T00:10:22.134Z,63.3972168
2022-07-25T00:11:22.992Z,63.19580078
2022-07-25T00:12:23.766Z,63.00048828
2022-07-25T00:13:24.587Z,63.00048828
2022-07-25T00:14:25.334Z,63.09814453
2022-07-25T00:15:26.013Z,63.19580078
2022-07-25T00:16:26.812Z,63.09814453
2022-07-25T00:17:28.387Z,62.79907227
2022-07-25T00:18:29.149Z,62.60375977
2022-07-25T00:19:29.905Z,62.90283203
2022-07-25T00:20:30.629Z,63.00048828
2022-07-25T00:21:31.424Z,62.90283203
2022-07-25T00:22:32.071Z,63.09814453
2022-07-25T00:23:32.758Z,62.90283203
2022-07-25T00:24:34.416Z,63.3972168
2022-07-25T00:26:05.483Z,63.3972168
2022-07-25T00:27:06.978Z,63.59863281
2022-07-25T00:28:07.760Z,63.69628906
2022-07-25T00:29:08.553Z,63.3972168
2022-07-25T00:30:09.291Z,63.29956055
2022-07-25T00:31:10.247Z,63.59863281
2022-07-25T00:32:11.729Z,63.89160156
2022-07-25T00:33:12.508Z,63.69628906
2022-07-25T00:34:13.312Z,63.59863281
2022-07-25T00:35:13.996Z,63.92211914
2022-07-25T00:36:15.299Z,64.32495117
2022-07-25T00:37:17.003Z,64.42260742
2022-07-25T00:38:17.753Z,64.22119141
2022-07-25T00:39:18.432Z,64.12353516
2022-07-25T00:40:19.096Z,64.02587891
2022-07-25T00:41:19.818Z,64.32495117
2022-07-25T00:42:20.626Z,64.52026367
2022-07-25T00:43:21.358Z,64.61791992
2022-07-25T00:44:22.127Z,64.72167969
2022-07-25T00:45:22.815Z,64.32495117
2022-07-25T00:46:23.624Z,64.52026367
2022-07-25T00:47:24.971Z,64.02587891
2022-07-25T00:48:25.852Z,64.12353516
2022-07-25T00:49:27.430Z,64.52026367
2022-07-25T00:50:28.084Z,64.61791992
2022-07-25T00:51:28.876Z,64.52026367
2022-07-25T00:52:29.718Z,64.22119141
2022-07-25T00:53:30.483Z,64.32495117
2022-07-25T00:54:31.215Z,64.52026367
2022-07-25T00:55:31.930Z,64.72167969
2022-07-25T00:56:32.645Z,64.52026367
2022-07-25T00:57:34.535Z,64.453125
2022-07-25T00:59:05.656Z,64.75219727
2022-07-25T01:00:06.375Z,65.05126953
2022-07-25T01:01:07.129Z,65.14892578
2022-07-25T01:02:07.950Z,64.94750977
2022-07-25T01:03:09.496Z,64.84985352
2022-07-25T01:04:10.191Z,64.84985352
2022-07-25T01:05:10.994Z,64.84985352
2022-07-25T01:06:11.578Z,65.14892578
2022-07-25T01:07:12.964Z,65.3503418
2022-07-25T01:08:14.501Z,65.14892578
2022-07-25T01:09:15.258Z,64.75219727
2022-07-25T01:10:16.007Z,64.75219727
2022-07-25T01:11:16.707Z,64.75219727
2022-07-25T01:12:17.485Z,65.05126953
2022-07-25T01:13:18.301Z,64.94750977
2022-07-25T01:14:19.070Z,65.05126953
2022-07-25T01:15:19.826Z,65.05126953
2022-07-25T01:16:20.520Z,65.08178711
2022-07-25T01:17:21.961Z,65.17944336
2022-07-25T01:18:22.777Z,65.27709961
2022-07-25T01:19:23.540Z,65.47851563
2022-07-25T01:20:24.240Z,65.67993164
2022-07-25T01:21:24.891Z,65.67993164
2022-07-25T01:22:25.664Z,65.67993164
2022-07-25T01:23:26.530Z,65.77758789
2022-07-25T01:24:27.235Z,65.67993164
2022-07-25T01:25:27.917Z,65.87524414
2022-07-25T01:26:28.587Z,65.97900391
2022-07-25T01:27:29.958Z,65.97900391
2022-07-25T01:28:30.765Z,65.77758789
2022-07-25T01:29:31.434Z,65.38085938
2022-07-25T01:30:32.145Z,65.67993164
2022-07-25T01:31:32.951Z,65.87524414
2022-07-25T01:33:06.651Z,65.77758789
2022-07-25T01:34:05.338Z,65.77758789
2022-07-25T01:35:06.275Z,65.87524414
2022-07-25T01:36:06.930Z,65.47851563
2022-07-25T01:37:07.683Z,65.38085938
2022-07-25T01:38:09.353Z,65.47851563
2022-07-25T01:39:10.186Z,65.57617188
2022-07-25T01:40:10.873Z,65.47851563
2022-07-25T01:41:11.615Z,65.67993164
2022-07-25T01:42:12.437Z,65.57617188
2022-07-25T01:43:13.644Z,65.27709961
2022-07-25T01:44:14.666Z,65.27709961
2022-07-25T01:45:15.373Z,65.38085938
2022-07-25T01:46:16.086Z,65.27709961
2022-07-25T01:47:16.741Z,65.38085938
2022-07-25T01:48:18.360Z,65.47851563
2022-07-25T01:49:19.244Z,65.67993164
2022-07-25T01:50:19.778Z,66.07666016
2022-07-25T01:51:20.639Z,66.07666016
2022-07-25T01:52:21.227Z,66.27197266
2022-07-25T01:53:22.049Z,66.07666016
2022-07-25T01:54:22.838Z,65.97900391
2022-07-25T01:55:23.512Z,66.07666016
2022-07-25T01:56:24.191Z,66.07666016
2022-07-25T01:57:30.126Z,66.00952148
2022-07-25T01:58:26.398Z,66.00952148
2022-07-25T01:59:27.204Z,66.20483398
2022-07-25T02:00:27.819Z,66.20483398
2022-07-25T02:01:28.640Z,66.20483398
2022-07-25T02:02:29.429Z,66.30859375
2022-07-25T02:03:30.258Z,66.40625
2022-07-25T02:04:31.107Z,66.30859375
2022-07-25T02:05:32.280Z,66.40625
2022-07-25T02:07:03.572Z,66.60766602
2022-07-25T02:08:04.981Z,66.30859375
2022-07-25T02:09:05.814Z,66.20483398
2022-07-25T02:10:06.544Z,66.30859375
2022-07-25T02:11:07.182Z,66.40625
2022-07-25T02:12:07.960Z,66.70532227
2022-07-25T02:13:08.751Z,67.10205078
2022-07-25T02:14:09.817Z,67.10205078
2022-07-25T02:15:10.333Z,67.19970703
2022-07-25T02:16:11.010Z,67.00439453
2022-07-25T02:17:11.985Z,66.70532227
2022-07-25T02:18:13.355Z,66.60766602
2022-07-25T02:19:14.133Z,66.50390625
2022-07-25T02:20:14.878Z,66.40625
2022-07-25T02:21:15.555Z,66.50390625
2022-07-25T02:22:16.272Z,66.40625
2022-07-25T02:23:17.074Z,66.30859375
2022-07-25T02:24:17.871Z,66.30859375
2022-07-25T02:25:18.725Z,66.70532227
2022-07-25T02:26:19.356Z,66.80297852
2022-07-25T02:27:20.064Z,66.70532227
2022-07-25T02:28:21.373Z,66.70532227
2022-07-25T02:29:22.316Z,66.50390625
2022-07-25T02:30:22.866Z,66.50390625
2022-07-25T02:31:23.572Z,66.50390625
2022-07-25T02:32:24.254Z,66.73583984
2022-07-25T02:33:25.031Z,67.13256836
2022-07-25T02:34:25.783Z,67.33398438
2022-07-25T02:35:27.374Z,67.33398438
2022-07-25T02:36:28.004Z,67.23632813
2022-07-25T02:37:28.826Z,67.03491211
2022-07-25T02:38:30.398Z,66.63818359
2022-07-25T02:39:31.196Z,66.63818359
2022-07-25T02:40:31.935Z,66.33911133
2022-07-25T02:42:03.132Z,66.20483398
2022-07-25T02:43:03.915Z,66.00952148
2022-07-25T02:44:05.195Z,65.90576172
2022-07-25T02:45:05.611Z,66.00952148
2022-07-25T02:46:06.384Z,66.30859375
2022-07-25T02:47:06.965Z,66.40625
2022-07-25T02:48:08.509Z,66.43676758
2022-07-25T02:49:09.399Z,66.73583984
2022-07-25T02:50:10.160Z,67.23632813
2022-07-25T02:51:10.872Z,67.23632813
2022-07-25T02:52:11.530Z,67.13256836
2022-07-25T02:53:12.990Z,67.03491211
2022-07-25T02:54:14.068Z,66.73583984
2022-07-25T02:55:14.565Z,66.63818359
2022-07-25T02:56:15.257Z,66.83349609
2022-07-25T02:57:15.929Z,67.03491211
2022-07-25T02:58:17.483Z,67.03491211
2022-07-25T02:59:18.253Z,66.93725586
2022-07-25T03:00:19.038Z,66.83349609
2022-07-25T03:01:19.872Z,67.03491211
2022-07-25T03:02:20.479Z,67.03491211
2022-07-25T03:03:21.989Z,66.93725586
2022-07-25T03:04:22.796Z,67.06542969
2022-07-25T03:05:23.521Z,67.16918945
2022-07-25T03:06:24.809Z,67.36450195
2022-07-25T03:07:25.464Z,67.46826172
2022-07-25T03:08:27.004Z,67.56591797
2022-07-25T03:09:27.833Z,67.56591797
2022-07-25T03:10:28.588Z,67.56591797
2022-07-25T03:11:29.309Z,67.46826172
2022-07-25T03:12:29.968Z,67.13256836
2022-07-25T03:14:03.138Z,67.13256836
2022-07-25T03:15:03.662Z,66.83349609
2022-07-25T03:16:04.377Z,66.53442383
2022-07-25T03:17:05.141Z,66.63818359
2022-07-25T03:18:06.505Z,66.93725586
2022-07-25T03:19:07.339Z,67.13256836
2022-07-25T03:20:08.216Z,66.83349609
2022-07-25T03:21:08.941Z,66.53442383
2022-07-25T03:22:09.637Z,66.33911133
2022-07-25T03:23:10.429Z,66.43676758
2022-07-25T03:24:11.844Z,66.43676758
2022-07-25T03:25:15.858Z,66.53442383
2022-07-25T03:26:13.429Z,66.43676758
2022-07-25T03:27:14.183Z,66.63818359
2022-07-25T03:28:15.500Z,66.43676758
2022-07-25T03:29:16.344Z,66.43676758
2022-07-25T03:30:17.121Z,66.33911133
2022-07-25T03:31:18.021Z,66.24145508
2022-07-25T03:32:18.689Z,66.43676758
2022-07-25T03:33:20.048Z,66.73583984
2022-07-25T03:34:20.819Z,66.93725586
2022-07-25T03:35:21.639Z,67.03491211
2022-07-25T03:36:22.361Z,67.06542969
2022-07-25T03:37:23.072Z,67.06542969
2022-07-25T03:38:24.522Z,67.16918945
2022-07-25T03:39:25.359Z,67.13256836
2022-07-25T03:40:26.142Z,67.03491211
2022-07-25T03:41:27.954Z,66.83349609
2022-07-25T03:42:32.181Z,66.73583984
2022-07-25T03:43:28.402Z,66.63818359
2022-07-25T03:44:29.199Z,66.93725586
2022-07-25T03:45:30.126Z,67.36450195
2022-07-25T03:46:30.950Z,67.66357422
2022-07-25T03:48:02.262Z,67.56591797
2022-07-25T03:49:03.987Z,67.46826172
2022-07-25T03:50:04.780Z,67.56591797
2022-07-25T03:51:07.195Z,67.56591797
2022-07-25T03:52:06.225Z,67.46826172
2022-07-25T03:53:06.948Z,67.63305664
2022-07-25T03:54:08.068Z,67.66357422
2022-07-25T03:55:08.513Z,67.66357422
2022-07-25T03:56:09.297Z,67.73071289
2022-07-25T03:57:09.996Z,67.93212891
2022-07-25T03:58:10.714Z,68.02978516
2022-07-25T03:59:12.416Z,67.96264648
2022-07-25T04:00:13.222Z,68.06640625
2022-07-25T04:01:14.081Z,67.86499023
2022-07-25T04:02:14.873Z,67.86499023
2022-07-25T04:03:16.615Z,67.96264648
2022-07-25T04:04:17.319Z,68.1640625
2022-07-25T04:05:18.111Z,68.1640625
2022-07-25T04:06:18.902Z,67.86499023
2022-07-25T04:07:19.632Z,67.96264648
2022-07-25T04:08:21.018Z,67.96264648
2022-07-25T04:09:21.701Z,67.86499023
2022-07-25T04:10:22.509Z,67.86499023
2022-07-25T04:11:23.337Z,67.73071289
2022-07-25T04:12:24.062Z,67.83447266
2022-07-25T04:13:25.634Z,67.66357422
2022-07-25T04:14:26.267Z,67.66357422
2022-07-25T04:15:27.052Z,67.83447266
2022-07-25T04:16:28.104Z,67.73071289
2022-07-25T04:17:28.553Z,67.53540039
2022-07-25T04:18:30.160Z,67.53540039
2022-07-25T04:19:30.703Z,67.83447266
2022-07-25T04:21:02.090Z,67.93212891
2022-07-25T04:22:02.890Z,67.73071289
2022-07-25T04:23:03.595Z,67.63305664
2022-07-25T04:24:04.669Z,67.63305664
2022-07-25T04:25:05.158Z,67.86499023
2022-07-25T04:26:06.000Z,67.96264648
2022-07-25T04:27:06.850Z,68.1640625
2022-07-25T04:28:07.579Z,68.36547852
2022-07-25T04:29:08.874Z,68.36547852
2022-07-25T04:30:09.684Z,68.1640625
2022-07-25T04:31:10.557Z,67.86499023
2022-07-25T04:32:11.725Z,68.06640625
2022-07-25T04:33:12.322Z,68.1640625
2022-07-25T04:34:13.041Z,67.96264648
2022-07-25T04:35:13.845Z,67.86499023
2022-07-25T04:36:15.500Z,68.06640625
2022-07-25T04:37:16.293Z,68.1640625
2022-07-25T04:38:16.999Z,67.86499023
2022-07-25T04:39:18.363Z,67.66357422
2022-07-25T04:40:19.155Z,67.56591797
2022-07-25T04:41:19.951Z,67.56591797
2022-07-25T04:42:20.849Z,67.56591797
2022-07-25T04:43:22.525Z,67.86499023
2022-07-25T04:44:23.216Z,67.76733398
2022-07-25T04:45:24.139Z,67.56591797
2022-07-25T04:46:24.841Z,67.56591797
2022-07-25T04:47:25.662Z,67.56591797
2022-07-25T04:48:26.414Z,67.16918945
2022-07-25T04:49:28.049Z,67.36450195
2022-07-25T04:50:28.753Z,67.56591797
2022-07-25T04:51:29.594Z,67.46826172
2022-07-25T04:52:30.375Z,67.36450195
2022-07-25T04:54:01.463Z,67.36450195
2022-07-25T04:55:02.268Z,67.2668457
2022-07-25T04:56:03.110Z,67.16918945
2022-07-25T04:57:03.892Z,67.36450195
2022-07-25T04:58:04.660Z,67.03491211
2022-07-25T04:59:06.822Z,67.03491211
2022-07-25T05:00:07.566Z,67.36450195
2022-07-25T05:01:08.389Z,67.23632813
2022-07-25T05:02:09.229Z,67.13256836
2022-07-25T05:03:09.960Z,67.13256836
2022-07-25T05:04:10.751Z,67.16918945
2022-07-25T05:05:21.191Z,67.46826172
2022-07-25T05:06:13.914Z,67.56591797
2022-07-25T05:07:14.730Z,67.66357422
2022-07-25T05:08:15.529Z,67.93212891
2022-07-25T05:09:16.851Z,67.83447266
2022-07-25T05:10:17.576Z,67.93212891
2022-07-25T05:11:18.365Z,67.63305664
2022-07-25T05:12:19.148Z,67.23632813
2022-07-25T05:13:19.878Z,67.23632813
2022-07-25T05:14:20.606Z,67.33398438
2022-07-25T05:15:21.335Z,67.33398438
2022-07-25T05:16:22.167Z,67.43164063
2022-07-25T05:17:22.891Z,67.43164063
2022-07-25T05:18:23.728Z,67.53540039
2022-07-25T05:19:25.342Z,67.13256836
2022-07-25T05:20:26.144Z,66.73583984
2022-07-25T05:21:26.910Z,66.93725586
2022-07-25T05:22:29.122Z,66.93725586
2022-07-25T05:23:29.534Z,66.93725586
2022-07-25T05:24:30.720Z,67.33398438
2022-07-25T05:26:01.797Z,67.40112305
2022-07-25T05:27:02.468Z,66.70532227
2022-07-25T05:28:03.261Z,66.70532227
2022-07-25T05:29:05.039Z,66.90673828
2022-07-25T05:30:05.772Z,66.90673828
2022-07-25T05:31:06.680Z,67.10205078
2022-07-25T05:32:07.378Z,67.19970703
2022-07-25T05:33:08.190Z,66.90673828
2022-07-25T05:34:09.974Z,66.60766602
2022-07-25T05:35:10.337Z,66.00952148
2022-07-25T05:36:11.052Z,66.10717773
2022-07-25T05:37:11.679Z,66.10717773
2022-07-25T05:38:12.381Z,66.20483398
2022-07-25T05:39:13.998Z,66.30859375
2022-07-25T05:40:14.701Z,66.37573242
2022-07-25T05:41:15.433Z,66.37573242
2022-07-25T05:42:16.234Z,66.37573242
2022-07-25T05:43:17.036Z,66.17431641
2022-07-25T05:44:17.811Z,66.17431641
2022-07-25T05:45:18.548Z,65.97900391
2022-07-25T05:46:19.366Z,65.67993164
2022-07-25T05:47:19.991Z,65.87524414
2022-07-25T05:48:20.676Z,65.77758789
2022-07-25T05:49:22.017Z,65.77758789
2022-07-25T05:50:22.704Z,65.74707031
2022-07-25T05:51:26.825Z,65.84472656
2022-07-25T05:52:24.148Z,65.5456543
2022-07-25T05:53:24.976Z,65.24658203
2022-07-25T05:54:26.540Z,65.3503418
2022-07-25T05:55:27.324Z,65.5456543
2022-07-25T05:56:28.026Z,65.64331055
2022-07-25T05:57:28.741Z,65.3503418
2022-07-25T05:58:30.161Z,65.14892578
2022-07-25T06:00:02.047Z,65.05126953
2022-07-25T06:01:02.823Z,65.24658203
2022-07-25T06:02:03.828Z,65.14892578
2022-07-25T06:03:04.858Z,65.05126953
2022-07-25T06:04:05.749Z,65.05126953
2022-07-25T06:05:06.206Z,64.75219727
2022-07-25T06:06:07.525Z,64.6484375
2022-07-25T06:07:08.454Z,64.75219727
2022-07-25T06:08:08.905Z,64.72167969
2022-07-25T06:09:10.578Z,64.72167969
2022-07-25T06:10:41.615Z,64.81933594
2022-07-25T06:12:12.847Z,64.72167969
2022-07-25T06:13:13.610Z,64.91699219
2022-07-25T06:14:14.435Z,64.81933594
2022-07-25T06:15:22.477Z,64.42260742
2022-07-25T06:16:15.893Z,64.52026367
2022-07-25T06:17:16.607Z,64.61791992
2022-07-25T06:18:17.379Z,64.52026367
2022-07-25T06:19:19.043Z,64.52026367
2022-07-25T06:20:20.176Z,64.52026367
2022-07-25T06:21:20.626Z,65.02075195
2022-07-25T06:22:21.330Z,64.81933594
2022-07-25T06:23:21.960Z,64.81933594
2022-07-25T06:24:22.632Z,64.78881836
2022-07-25T06:25:23.375Z,64.98413086
2022-07-25T06:26:24.056Z,64.98413086
2022-07-25T06:27:29.082Z,64.09301758
2022-07-25T06:28:25.467Z,64.19067383
2022-07-25T06:29:27.046Z,64.28833008
2022-07-25T06:30:27.860Z,64.09301758
2022-07-25T06:31:28.578Z,64.19067383
2022-07-25T06:32:29.321Z,64.19067383
2022-07-25T06:34:00.494Z,64.28833008
2022-07-25T06:35:01.993Z,64.28833008
2022-07-25T06:36:02.804Z,64.19067383
2022-07-25T06:37:03.589Z,64.19067383
2022-07-25T06:38:04.616Z,63.79394531
2022-07-25T06:39:05.276Z,63.69628906
2022-07-25T06:40:06.959Z,63.66577148
2022-07-25T06:41:07.755Z,63.66577148
2022-07-25T06:42:08.501Z,63.56811523
2022-07-25T06:43:09.220Z,63.26904297
2022-07-25T06:44:10.096Z,63.46435547
2022-07-25T06:45:10.666Z,63.36669922
2022-07-25T06:46:11.729Z,63.46435547
2022-07-25T06:47:12.499Z,63.26904297
2022-07-25T06:48:13.314Z,63.36669922
2022-07-25T06:49:14.135Z,63.06762695
2022-07-25T06:50:15.464Z,62.76855469
2022-07-25T06:51:16.235Z,62.87231445
2022-07-25T06:52:16.955Z,62.76855469
2022-07-25T06:53:17.698Z,62.27416992
2022-07-25T06:54:18.356Z,62.27416992
2022-07-25T06:55:19.058Z,62.17651367
2022-07-25T06:56:19.742Z,62.04833984
2022-07-25T06:57:20.455Z,61.74926758
2022-07-25T06:58:22.921Z,61.64550781
2022-07-25T06:59:21.989Z,62.04833984
2022-07-25T07:00:23.356Z,61.84692383
2022-07-25T07:01:24.108Z,61.84692383
2022-07-25T07:02:24.726Z,61.45019531
2022-07-25T07:03:25.495Z,61.2487793
2022-07-25T07:04:27.028Z,61.2487793
2022-07-25T07:05:27.704Z,61.45019531
2022-07-25T07:06:28.419Z,61.45019531
2022-07-25T07:07:29.516Z,61.74926758
2022-07-25T07:09:01.375Z,61.35253906
2022-07-25T07:10:02.862Z,61.0534668
2022-07-25T07:11:03.547Z,60.85205078
2022-07-25T07:12:04.240Z,59.56420898
2022-07-25T07:13:04.997Z,59.36279297
2022-07-25T07:14:06.204Z,59.06982422
2022-07-25T07:15:06.471Z,59.16748047
2022-07-25T07:16:07.268Z,59.23461914
2022-07-25T07:17:07.861Z,59.33837891
2022-07-25T07:18:08.557Z,59.43603516
2022-07-25T07:19:09.653Z,59.13696289
2022-07-25T07:20:10.871Z,59.33837891
2022-07-25T07:21:11.625Z,59.13696289
2022-07-25T07:22:12.329Z,58.94165039
2022-07-25T07:23:16.550Z,58.54492188
2022-07-25T07:24:24.076Z,58.54492188
2022-07-25T07:25:14.372Z,58.34350586
2022-07-25T07:26:15.033Z,58.54492188
2022-07-25T07:27:15.759Z,58.14819336
2022-07-25T07:28:16.445Z,57.84912109
2022-07-25T07:29:17.127Z,58.34350586
2022-07-25T07:30:23.773Z,58.34350586
2022-07-25T07:31:19.381Z,58.24584961
2022-07-25T07:32:19.838Z,58.24584961
2022-07-25T07:33:20.389Z,58.11767578
2022-07-25T07:34:21.082Z,57.62329102
2022-07-25T07:35:22.379Z,57.72094727
2022-07-25T07:36:23.079Z,57.72094727
2022-07-25T07:37:23.745Z,57.62329102
2022-07-25T07:38:25.019Z,57.421875
2022-07-25T07:39:25.728Z,57.32421875
2022-07-25T07:40:27.403Z,57.2265625
2022-07-25T07:41:28.109Z,57.12890625
2022-07-25T07:42:29.213Z,57.32421875
2022-07-25T07:44:00.214Z,58.21533203
2022-07-25T07:45:00.910Z,58.61206055
2022-07-25T07:46:01.924Z,58.61206055
2022-07-25T07:47:02.213Z,58.81347656
2022-07-25T07:48:02.881Z,59.11254883
2022-07-25T07:49:03.993Z,59.40551758
2022-07-25T07:50:05.077Z,59.21020508
2022-07-25T07:51:05.711Z,59.00878906
2022-07-25T07:52:06.419Z,59.80224609
2022-07-25T07:53:07.130Z,59.47875977
2022-07-25T07:54:07.879Z,59.77783203
2022-07-25T07:55:08.543Z,58.984375
2022-07-25T07:56:09.194Z,59.47875977
2022-07-25T07:57:09.862Z,58.68530273
2022-07-25T07:58:10.575Z,58.88061523
2022-07-25T07:59:11.491Z,58.19091797
2022-07-25T08:00:16.539Z,57.8918457
2022-07-25T08:01:13.747Z,57.69042969
2022-07-25T08:02:14.449Z,57.8918457
2022-07-25T08:03:15.195Z,58.28857422
2022-07-25T08:04:15.785Z,58.88061523
2022-07-25T08:05:17.453Z,57.8918457
2022-07-25T08:06:18.098Z,54.32128906
2022-07-25T08:07:18.818Z,55.21240234
2022-07-25T08:08:19.516Z,55.60913086
2022-07-25T08:09:20.208Z,55.60913086
2022-07-25T08:10:21.894Z,55.28564453
2022-07-25T08:11:22.586Z,55.48706055
2022-07-25T08:12:23.919Z,53.80249023
2022-07-25T08:13:24.614Z,54.39453125
2022-07-25T08:14:25.311Z,54.09545898
2022-07-25T08:15:26.551Z,54.19921875
2022-07-25T08:16:27.308Z,54.19921875
2022-07-25T08:17:28.792Z,54.19921875
2022-07-25T08:18:59.909Z,54.19921875
2022-07-25T08:20:20.949Z,54.4921875
2022-07-25T08:21:02.348Z,53.30810547
2022-07-25T08:22:02.995Z,53.99780273
2022-07-25T08:23:03.745Z,53.67431641
2022-07-25T08:24:04.798Z,53.57666016
2022-07-25T08:25:05.165Z,53.17993164
2022-07-25T08:26:05.902Z,53.38134766
2022-07-25T08:27:07.564Z,53.08227539
2022-07-25T08:28:08.295Z,53.27758789
2022-07-25T08:29:19.236Z,53.08227539
2022-07-25T08:30:11.069Z,52.98461914
2022-07-25T08:31:12.073Z,53.57666016
2022-07-25T08:32:12.679Z,54.86450195
2022-07-25T08:33:13.685Z,53.77807617
2022-07-25T08:34:14.033Z,53.77807617
2022-07-25T08:35:14.797Z,54.56542969
2022-07-25T08:36:15.532Z,53.17993164
2022-07-25T08:37:17.076Z,53.27758789
2022-07-25T08:38:17.825Z,53.27758789
2022-07-25T08:39:18.586Z,53.38134766
2022-07-25T08:40:20.048Z,53.57666016
2022-07-25T08:41:20.793Z,53.74755859
2022-07-25T08:42:21.412Z,52.96020508
2022-07-25T08:43:22.090Z,52.2644043
2022-07-25T08:44:22.761Z,52.75878906
2022-07-25T08:45:23.394Z,52.56347656
2022-07-25T08:46:24.281Z,51.96533203
2022-07-25T08:47:24.835Z,52.56347656
2022-07-25T08:48:25.714Z,52.75878906
2022-07-25T08:49:26.193Z,52.36206055
2022-07-25T08:50:27.392Z,52.16674805
2022-07-25T08:51:28.557Z,52.0690918
2022-07-25T08:53:31.092Z,52.56347656
2022-07-25T08:54:00.901Z,52.75878906
2022-07-25T08:55:01.599Z,53.05786133
2022-07-25T08:56:06.668Z,52.56347656
2022-07-25T08:57:03.045Z,52.36206055
2022-07-25T08:58:03.843Z,52.75878906
2022-07-25T08:59:04.726Z,52.4597168
2022-07-25T09:00:06.090Z,52.75878906
2022-07-25T09:01:06.945Z,52.9296875
2022-07-25T09:02:08.510Z,52.734375
2022-07-25T09:03:09.272Z,52.43530273
2022-07-25T09:04:10.478Z,53.03344727
2022-07-25T09:05:10.538Z,52.9296875
2022-07-25T09:06:11.542Z,52.14233398
2022-07-25T09:07:13.177Z,52.5390625
2022-07-25T09:08:13.716Z,52.03857422
2022-07-25T09:09:14.396Z,52.9296875
2022-07-25T09:10:15.609Z,53.32641602
2022-07-25T09:11:16.238Z,53.32641602
2022-07-25T09:12:17.100Z,52.5390625
2022-07-25T09:13:17.588Z,52.43530273
2022-07-25T09:14:18.933Z,52.734375
2022-07-25T09:15:19.662Z,52.83203125
2022-07-25T09:16:20.397Z,52.9296875
2022-07-25T09:17:22.669Z,52.83203125
2022-07-25T09:18:21.689Z,52.70996094
2022-07-25T09:19:22.359Z,53.10668945
2022-07-25T09:20:24.046Z,53.3996582
2022-07-25T09:21:24.750Z,53.60107422
2022-07-25T09:22:25.488Z,53.60107422
2022-07-25T09:23:26.158Z,53.10668945
2022-07-25T09:24:26.868Z,53.10668945
2022-07-25T09:25:27.573Z,53.10668945
2022-07-25T09:26:58.805Z,53.00292969
2022-07-25T09:27:59.558Z,52.70996094
2022-07-25T09:29:00.228Z,52.70996094
2022-07-25T09:30:00.976Z,52.11791992
2022-07-25T09:31:02.433Z,52.19116211
2022-07-25T09:32:03.048Z,52.19116211
2022-07-25T09:33:03.758Z,52.19116211
2022-07-25T09:34:04.855Z,52.08740234
2022-07-25T09:35:06.057Z,52.48413086
2022-07-25T09:36:06.715Z,52.28881836
2022-07-25T09:37:07.478Z,52.48413086
2022-07-25T09:38:08.194Z,52.38647461
2022-07-25T09:39:08.855Z,52.58178711
2022-07-25T09:40:10.557Z,52.48413086
2022-07-25T09:41:12.062Z,52.38647461
2022-07-25T09:42:12.745Z,52.58178711
2022-07-25T09:43:13.474Z,52.48413086
2022-07-25T09:44:14.200Z,52.6550293
2022-07-25T09:45:15.024Z,52.85644531
2022-07-25T09:46:15.829Z,51.67236328
2022-07-25T09:47:16.602Z,51.96533203
2022-07-25T09:48:17.338Z,52.16674805
2022-07-25T09:49:18.191Z,52.36206055
2022-07-25T09:50:18.879Z,52.2644043
2022-07-25T09:51:20.507Z,52.36206055
2022-07-25T09:52:21.235Z,52.36206055
2022-07-25T09:53:21.956Z,52.55737305
2022-07-25T09:54:22.595Z,52.06298828
2022-07-25T09:55:23.408Z,52.2644043
2022-07-25T09:56:24.231Z,52.33764648
2022-07-25T09:57:25.006Z,51.6418457
2022-07-25T09:58:25.762Z,51.84326172
2022-07-25T09:59:26.435Z,51.94091797
2022-07-25T10:00:27.709Z,51.94091797
2022-07-25T10:01:59.546Z,51.6418457
2022-07-25T10:03:00.173Z,51.54418945
2022-07-25T10:04:00.854Z,50.65917969
2022-07-25T10:05:01.623Z,49.67041016
2022-07-25T10:06:02.463Z,49.37133789
2022-07-25T10:07:04.146Z,49.45068359
2022-07-25T10:08:04.875Z,49.54833984
2022-07-25T10:09:05.658Z,48.95629883
2022-07-25T10:10:06.449Z,49.15161133
2022-07-25T10:11:08.152Z,49.22485352
2022-07-25T10:12:08.976Z,48.53515625
2022-07-25T10:13:10.800Z,48.6328125
2022-07-25T10:14:11.642Z,48.73657227
2022-07-25T10:15:12.379Z,48.83422852
2022-07-25T10:16:13.277Z,48.14453125
2022-07-25T10:17:14.080Z,48.33984375
2022-07-25T10:18:14.770Z,48.4375
2022-07-25T10:19:15.479Z,48.93188477
2022-07-25T10:20:16.196Z,49.12719727
2022-07-25T10:21:26.175Z,49.20043945
2022-07-25T10:22:29.385Z,48.51074219
2022-07-25T10:23:19.043Z,47.62573242
2022-07-25T10:24:19.773Z,47.52807617
2022-07-25T10:25:20.506Z,48.7121582
2022-07-25T10:26:21.312Z,47.82104492
2022-07-25T10:27:22.103Z,48.12011719
2022-07-25T10:28:22.810Z,47.91870117
2022-07-25T10:29:23.630Z,47.82104492
2022-07-25T10:30:24.405Z,46.83837891
2022-07-25T10:31:26.089Z,47.30834961
2022-07-25T10:32:26.804Z,46.81396484
2022-07-25T10:33:57.853Z,45.1171875
2022-07-25T10:34:58.595Z,45.41015625
2022-07-25T10:36:00.027Z,45.3125
2022-07-25T10:37:00.806Z,45.01953125
2022-07-25T10:38:01.533Z,44.62280273
2022-07-25T10:39:02.180Z,42.73071289
2022-07-25T10:40:03.135Z,41.65039063
2022-07-25T10:41:04.511Z,41.65039063
2022-07-25T10:42:06.148Z,40.36865234
2022-07-25T10:43:06.909Z,40.44799805
2022-07-25T10:44:07.835Z,40.3503418
2022-07-25T10:45:08.419Z,39.46533203
2022-07-25T10:46:09.287Z,39.06860352
2022-07-25T10:47:10.019Z,39.56298828
2022-07-25T10:48:10.730Z,39.95361328
2022-07-25T10:49:12.166Z,39.56298828
2022-07-25T10:50:29.748Z,39.46533203
2022-07-25T10:51:14.039Z,39.54467773
2022-07-25T10:52:14.797Z,39.24560547
2022-07-25T10:53:16.467Z,38.45825195
2022-07-25T10:54:17.168Z,39.05029297
2022-07-25T10:55:17.915Z,39.05029297
2022-07-25T10:56:18.755Z,38.75732422
2022-07-25T10:57:19.555Z,38.93432617
2022-07-25T10:58:20.349Z,39.12963867
2022-07-25T10:59:21.040Z,38.53759766
2022-07-25T11:00:22.527Z,37.65258789
2022-07-25T11:01:24.243Z,38.04931641
2022-07-25T11:02:24.970Z,38.83666992
2022-07-25T11:03:25.667Z,39.42260742
2022-07-25T11:04:26.394Z,37.75634766
2022-07-25T11:05:57.672Z,38.63525391
2022-07-25T11:06:58.429Z,38.93432617
2022-07-25T11:08:20.631Z,39.52026367
2022-07-25T11:09:00.780Z,39.22729492
2022-07-25T11:10:01.606Z,38.83666992